sensor_id;sensor_type;location;lat;lon;timestamp;temperature;humidity
1381;DHT22;684;48.342;10.096;2023-08-31T00:02:01;15.30;31.60
1381;DHT22;684;48.342;10.096;2023-08-31T00:04:29;15.30;31.50
1381;DHT22;684;48.342;10.096;2023-08-31T00:06:56;15.30;31.40
1381;DHT22;684;48.342;10.096;2023-08-31T00:09:23;15.40;31.40
1381;DHT22;684;48.342;10.096;2023-08-31T00:11:49;15.50;31.40
1381;DHT22;684;48.342;10.096;2023-08-31T00:14:18;15.50;31.30
1381;DHT22;684;48.342;10.096;2023-08-31T00:16:44;15.60;31.30
1381;DHT22;684;48.342;10.096;2023-08-31T00:19:12;15.60;31.10
1381;DHT22;684;48.342;10.096;2023-08-31T00:21:39;15.60;31.20
1381;DHT22;684;48.342;10.096;2023-08-31T00:24:07;15.70;31.50
1381;DHT22;684;48.342;10.096;2023-08-31T00:26:35;15.70;31.50
1381;DHT22;684;48.342;10.096;2023-08-31T00:29:08;15.70;31.30
1381;DHT22;684;48.342;10.096;2023-08-31T00:31:37;15.60;31.10
1381;DHT22;684;48.342;10.096;2023-08-31T00:34:04;15.60;31.30
1381;DHT22;684;48.342;10.096;2023-08-31T00:36:32;15.60;31.40
1381;DHT22;684;48.342;10.096;2023-08-31T00:39:02;15.60;31.30
1381;DHT22;684;48.342;10.096;2023-08-31T00:41:31;15.60;31.30
1381;DHT22;684;48.342;10.096;2023-08-31T00:43:57;15.60;31.30
1381;DHT22;684;48.342;10.096;2023-08-31T00:46:24;15.50;31.30
1381;DHT22;684;48.342;10.096;2023-08-31T00:48:54;15.50;31.30
1381;DHT22;684;48.342;10.096;2023-08-31T00:51:22;15.60;31.30
1381;DHT22;684;48.342;10.096;2023-08-31T00:53:49;15.60;31.90
1381;DHT22;684;48.342;10.096;2023-08-31T00:56:19;15.60;31.40
1381;DHT22;684;48.342;10.096;2023-08-31T00:58:45;15.60;31.40
1381;DHT22;684;48.342;10.096;2023-08-31T01:01:19;15.60;31.40
1381;DHT22;684;48.342;10.096;2023-08-31T01:03:55;15.60;31.50
1381;DHT22;684;48.342;10.096;2023-08-31T01:06:33;15.60;31.60
1381;DHT22;684;48.342;10.096;2023-08-31T01:09:07;15.60;32.20
1381;DHT22;684;48.342;10.096;2023-08-31T01:11:45;15.60;31.70
1381;DHT22;684;48.342;10.096;2023-08-31T01:14:17;15.60;31.90
1381;DHT22;684;48.342;10.096;2023-08-31T01:16:48;15.60;31.80
1381;DHT22;684;48.342;10.096;2023-08-31T01:19:30;15.60;31.90
1381;DHT22;684;48.342;10.096;2023-08-31T01:22:07;15.60;32.40
1381;DHT22;684;48.342;10.096;2023-08-31T01:24:37;15.60;32.20
1381;DHT22;684;48.342;10.096;2023-08-31T01:27:04;15.60;32.20
1381;DHT22;684;48.342;10.096;2023-08-31T01:29:31;15.50;32.20
1381;DHT22;684;48.342;10.096;2023-08-31T01:31:58;15.50;32.30
1381;DHT22;684;48.342;10.096;2023-08-31T01:34:25;15.50;32.30
1381;DHT22;684;48.342;10.096;2023-08-31T01:36:57;15.50;32.40
1381;DHT22;684;48.342;10.096;2023-08-31T01:39:31;15.50;32.10
1381;DHT22;684;48.342;10.096;2023-08-31T01:42:03;15.50;31.80
1381;DHT22;684;48.342;10.096;2023-08-31T01:44:33;15.40;31.60
1381;DHT22;684;48.342;10.096;2023-08-31T01:47:03;15.40;31.40
1381;DHT22;684;48.342;10.096;2023-08-31T01:49:36;15.30;31.50
1381;DHT22;684;48.342;10.096;2023-08-31T01:52:03;15.30;31.70
1381;DHT22;684;48.342;10.096;2023-08-31T01:54:30;15.30;32.00
1381;DHT22;684;48.342;10.096;2023-08-31T01:56:56;15.20;32.20
1381;DHT22;684;48.342;10.096;2023-08-31T01:59:25;15.20;32.50
1381;DHT22;684;48.342;10.096;2023-08-31T02:01:52;15.20;32.70
1381;DHT22;684;48.342;10.096;2023-08-31T02:04:19;15.20;32.80
1381;DHT22;684;48.342;10.096;2023-08-31T02:06:45;15.20;33.00
1381;DHT22;684;48.342;10.096;2023-08-31T02:09:12;15.10;32.90
1381;DHT22;684;48.342;10.096;2023-08-31T02:11:39;15.20;32.90
1381;DHT22;684;48.342;10.096;2023-08-31T02:14:06;15.10;33.00
1381;DHT22;684;48.342;10.096;2023-08-31T02:16:34;15.10;33.10
1381;DHT22;684;48.342;10.096;2023-08-31T02:19:01;15.10;33.20
1381;DHT22;684;48.342;10.096;2023-08-31T02:21:27;15.00;33.30
1381;DHT22;684;48.342;10.096;2023-08-31T02:23:54;15.00;33.30
1381;DHT22;684;48.342;10.096;2023-08-31T02:26:21;15.00;33.50
1381;DHT22;684;48.342;10.096;2023-08-31T02:28:48;15.00;33.60
1381;DHT22;684;48.342;10.096;2023-08-31T02:31:17;15.00;33.60
1381;DHT22;684;48.342;10.096;2023-08-31T02:33:46;14.90;33.80
1381;DHT22;684;48.342;10.096;2023-08-31T02:36:13;14.80;33.80
1381;DHT22;684;48.342;10.096;2023-08-31T02:38:40;14.80;33.90
1381;DHT22;684;48.342;10.096;2023-08-31T02:41:06;14.70;34.00
1381;DHT22;684;48.342;10.096;2023-08-31T02:43:33;14.70;34.10
1381;DHT22;684;48.342;10.096;2023-08-31T02:46:00;14.70;34.30
1381;DHT22;684;48.342;10.096;2023-08-31T02:48:27;14.70;34.30
1381;DHT22;684;48.342;10.096;2023-08-31T02:50:56;14.70;34.40
1381;DHT22;684;48.342;10.096;2023-08-31T02:53:23;14.70;34.60
1381;DHT22;684;48.342;10.096;2023-08-31T02:55:49;14.70;34.60
1381;DHT22;684;48.342;10.096;2023-08-31T02:58:17;14.70;34.70
1381;DHT22;684;48.342;10.096;2023-08-31T03:00:44;14.70;34.80
1381;DHT22;684;48.342;10.096;2023-08-31T03:03:13;14.60;34.70
1381;DHT22;684;48.342;10.096;2023-08-31T03:05:40;14.60;35.00
1381;DHT22;684;48.342;10.096;2023-08-31T03:08:08;14.60;34.90
1381;DHT22;684;48.342;10.096;2023-08-31T03:10:35;14.70;35.00
1381;DHT22;684;48.342;10.096;2023-08-31T03:13:02;14.60;34.90
1381;DHT22;684;48.342;10.096;2023-08-31T03:15:29;14.60;35.00
1381;DHT22;684;48.342;10.096;2023-08-31T03:17:56;14.60;35.50
1381;DHT22;684;48.342;10.096;2023-08-31T03:20:23;14.60;35.00
1381;DHT22;684;48.342;10.096;2023-08-31T03:22:49;14.60;35.10
1381;DHT22;684;48.342;10.096;2023-08-31T03:25:17;14.60;35.10
1381;DHT22;684;48.342;10.096;2023-08-31T03:27:44;14.60;35.20
1381;DHT22;684;48.342;10.096;2023-08-31T03:30:11;14.60;35.30
1381;DHT22;684;48.342;10.096;2023-08-31T03:32:38;14.60;35.40
1381;DHT22;684;48.342;10.096;2023-08-31T03:35:06;14.60;35.40
1381;DHT22;684;48.342;10.096;2023-08-31T03:37:33;14.70;35.60
1381;DHT22;684;48.342;10.096;2023-08-31T03:40:00;14.70;35.70
1381;DHT22;684;48.342;10.096;2023-08-31T03:42:30;14.70;35.70
1381;DHT22;684;48.342;10.096;2023-08-31T03:44:56;14.70;35.70
1381;DHT22;684;48.342;10.096;2023-08-31T03:47:23;14.70;35.60
1381;DHT22;684;48.342;10.096;2023-08-31T03:49:50;14.70;35.50
1381;DHT22;684;48.342;10.096;2023-08-31T03:52:16;14.70;35.50
1381;DHT22;684;48.342;10.096;2023-08-31T03:54:43;14.60;35.50
1381;DHT22;684;48.342;10.096;2023-08-31T03:57:10;14.60;35.60
1381;DHT22;684;48.342;10.096;2023-08-31T03:59:38;14.60;35.60
1381;DHT22;684;48.342;10.096;2023-08-31T04:02:04;14.60;35.70
1381;DHT22;684;48.342;10.096;2023-08-31T04:04:32;14.60;35.70
1381;DHT22;684;48.342;10.096;2023-08-31T04:06:59;14.60;35.80
1381;DHT22;684;48.342;10.096;2023-08-31T04:09:26;14.60;35.80
1381;DHT22;684;48.342;10.096;2023-08-31T04:11:52;14.60;35.80
1381;DHT22;684;48.342;10.096;2023-08-31T04:14:19;14.60;35.90
1381;DHT22;684;48.342;10.096;2023-08-31T04:16:47;14.60;36.00
1381;DHT22;684;48.342;10.096;2023-08-31T04:19:15;14.70;36.10
1381;DHT22;684;48.342;10.096;2023-08-31T04:21:42;14.70;36.00
1381;DHT22;684;48.342;10.096;2023-08-31T04:24:09;14.70;36.10
1381;DHT22;684;48.342;10.096;2023-08-31T04:26:36;14.70;36.20
1381;DHT22;684;48.342;10.096;2023-08-31T04:29:03;14.70;35.90
1381;DHT22;684;48.342;10.096;2023-08-31T04:31:31;14.70;36.00
1381;DHT22;684;48.342;10.096;2023-08-31T04:33:59;14.70;36.00
1381;DHT22;684;48.342;10.096;2023-08-31T04:36:25;14.70;36.00
1381;DHT22;684;48.342;10.096;2023-08-31T04:38:52;14.70;36.00
1381;DHT22;684;48.342;10.096;2023-08-31T04:41:19;14.70;35.90
1381;DHT22;684;48.342;10.096;2023-08-31T04:43:46;14.70;36.00
1381;DHT22;684;48.342;10.096;2023-08-31T04:46:14;14.70;36.00
1381;DHT22;684;48.342;10.096;2023-08-31T04:48:40;14.70;35.90
1381;DHT22;684;48.342;10.096;2023-08-31T04:51:27;14.70;36.10
1381;DHT22;684;48.342;10.096;2023-08-31T04:53:54;14.70;36.10
1381;DHT22;684;48.342;10.096;2023-08-31T04:56:21;14.70;35.90
1381;DHT22;684;48.342;10.096;2023-08-31T04:58:47;14.70;36.00
1381;DHT22;684;48.342;10.096;2023-08-31T05:01:14;14.70;36.00
1381;DHT22;684;48.342;10.096;2023-08-31T05:03:41;14.70;36.00
1381;DHT22;684;48.342;10.096;2023-08-31T05:06:09;14.70;35.90
1381;DHT22;684;48.342;10.096;2023-08-31T05:08:36;14.70;35.80
1381;DHT22;684;48.342;10.096;2023-08-31T05:11:03;14.70;35.80
1381;DHT22;684;48.342;10.096;2023-08-31T05:13:30;14.70;35.80
1381;DHT22;684;48.342;10.096;2023-08-31T05:15:57;14.80;35.80
1381;DHT22;684;48.342;10.096;2023-08-31T05:18:24;14.80;35.70
1381;DHT22;684;48.342;10.096;2023-08-31T05:20:50;14.80;36.10
1381;DHT22;684;48.342;10.096;2023-08-31T05:23:18;14.90;35.50
1381;DHT22;684;48.342;10.096;2023-08-31T05:25:45;15.00;35.40
1381;DHT22;684;48.342;10.096;2023-08-31T05:28:12;15.10;35.40
1381;DHT22;684;48.342;10.096;2023-08-31T05:30:47;15.20;35.20
1381;DHT22;684;48.342;10.096;2023-08-31T05:33:14;15.30;35.20
1381;DHT22;684;48.342;10.096;2023-08-31T05:35:41;15.40;34.80
1381;DHT22;684;48.342;10.096;2023-08-31T05:38:08;15.50;34.70
1381;DHT22;684;48.342;10.096;2023-08-31T05:40:36;15.70;35.10
1381;DHT22;684;48.342;10.096;2023-08-31T05:43:03;16.00;35.00
1381;DHT22;684;48.342;10.096;2023-08-31T05:45:32;16.20;34.10
1381;DHT22;684;48.342;10.096;2023-08-31T05:47:58;16.20;33.40
1381;DHT22;684;48.342;10.096;2023-08-31T05:50:26;16.30;33.00
1381;DHT22;684;48.342;10.096;2023-08-31T05:52:52;16.40;32.40
1381;DHT22;684;48.342;10.096;2023-08-31T05:55:19;16.50;31.90
1381;DHT22;684;48.342;10.096;2023-08-31T05:57:48;16.60;31.20
1381;DHT22;684;48.342;10.096;2023-08-31T06:00:15;16.60;30.80
1381;DHT22;684;48.342;10.096;2023-08-31T06:02:42;16.70;30.50
1381;DHT22;684;48.342;10.096;2023-08-31T06:05:10;17.70;30.00
1381;DHT22;684;48.342;10.096;2023-08-31T06:07:38;19.50;25.10
1381;DHT22;684;48.342;10.096;2023-08-31T06:10:06;21.20;19.20
1381;DHT22;684;48.342;10.096;2023-08-31T06:12:33;22.00;16.00
1381;DHT22;684;48.342;10.096;2023-08-31T06:15:01;21.60;15.70
1381;DHT22;684;48.342;10.096;2023-08-31T06:17:28;21.00;16.30
1381;DHT22;684;48.342;10.096;2023-08-31T06:19:55;20.50;16.50
1381;DHT22;684;48.342;10.096;2023-08-31T06:22:22;20.10;17.20
1381;DHT22;684;48.342;10.096;2023-08-31T06:24:50;19.70;17.90
1381;DHT22;684;48.342;10.096;2023-08-31T06:27:17;19.40;18.70
1381;DHT22;684;48.342;10.096;2023-08-31T06:29:43;19.20;19.00
1381;DHT22;684;48.342;10.096;2023-08-31T06:32:11;19.00;19.60
1381;DHT22;684;48.342;10.096;2023-08-31T06:34:38;18.70;20.30
1381;DHT22;684;48.342;10.096;2023-08-31T06:37:05;18.60;21.00
1381;DHT22;684;48.342;10.096;2023-08-31T06:39:31;18.40;21.50
1381;DHT22;684;48.342;10.096;2023-08-31T06:41:59;18.30;21.90
1381;DHT22;684;48.342;10.096;2023-08-31T06:44:25;18.10;22.40
1381;DHT22;684;48.342;10.096;2023-08-31T06:46:52;18.00;22.70
1381;DHT22;684;48.342;10.096;2023-08-31T06:49:21;18.00;23.00
1381;DHT22;684;48.342;10.096;2023-08-31T06:51:48;17.90;23.40
1381;DHT22;684;48.342;10.096;2023-08-31T06:54:14;17.80;23.60
1381;DHT22;684;48.342;10.096;2023-08-31T06:56:41;17.70;24.00
1381;DHT22;684;48.342;10.096;2023-08-31T06:59:08;17.70;24.40
1381;DHT22;684;48.342;10.096;2023-08-31T07:01:35;17.80;24.30
1381;DHT22;684;48.342;10.096;2023-08-31T07:04:02;17.90;24.50
1381;DHT22;684;48.342;10.096;2023-08-31T07:06:33;17.90;23.70
1381;DHT22;684;48.342;10.096;2023-08-31T07:09:00;17.80;23.70
1381;DHT22;684;48.342;10.096;2023-08-31T07:11:27;17.70;23.70
1381;DHT22;684;48.342;10.096;2023-08-31T07:13:53;17.60;23.80
1381;DHT22;684;48.342;10.096;2023-08-31T07:16:20;17.60;23.90
1381;DHT22;684;48.342;10.096;2023-08-31T07:18:47;17.50;23.80
1381;DHT22;684;48.342;10.096;2023-08-31T07:21:13;17.60;24.00
1381;DHT22;684;48.342;10.096;2023-08-31T07:23:41;17.60;24.20
1381;DHT22;684;48.342;10.096;2023-08-31T07:26:08;17.60;24.30
1381;DHT22;684;48.342;10.096;2023-08-31T07:28:35;17.70;24.40
1381;DHT22;684;48.342;10.096;2023-08-31T07:31:02;17.70;24.20
1381;DHT22;684;48.342;10.096;2023-08-31T07:33:30;17.70;24.20
1381;DHT22;684;48.342;10.096;2023-08-31T07:35:57;17.70;24.10
1381;DHT22;684;48.342;10.096;2023-08-31T07:38:25;17.60;24.60
1381;DHT22;684;48.342;10.096;2023-08-31T07:40:53;17.50;24.30
1381;DHT22;684;48.342;10.096;2023-08-31T07:43:20;17.50;24.60
1381;DHT22;684;48.342;10.096;2023-08-31T07:45:47;17.50;24.80
1381;DHT22;684;48.342;10.096;2023-08-31T07:48:14;17.60;24.80
1381;DHT22;684;48.342;10.096;2023-08-31T07:50:41;17.70;24.30
1381;DHT22;684;48.342;10.096;2023-08-31T07:53:08;17.80;24.10
1381;DHT22;684;48.342;10.096;2023-08-31T07:55:34;17.90;23.80
1381;DHT22;684;48.342;10.096;2023-08-31T07:58:03;18.00;23.10
1381;DHT22;684;48.342;10.096;2023-08-31T08:00:30;18.00;23.00
1381;DHT22;684;48.342;10.096;2023-08-31T08:02:56;18.00;23.20
1381;DHT22;684;48.342;10.096;2023-08-31T08:05:23;18.10;23.10
1381;DHT22;684;48.342;10.096;2023-08-31T08:07:50;18.30;22.80
1381;DHT22;684;48.342;10.096;2023-08-31T08:10:17;18.50;21.60
1381;DHT22;684;48.342;10.096;2023-08-31T08:12:43;18.60;21.90
1381;DHT22;684;48.342;10.096;2023-08-31T08:15:12;18.50;20.60
1381;DHT22;684;48.342;10.096;2023-08-31T08:17:39;18.50;20.20
1381;DHT22;684;48.342;10.096;2023-08-31T08:20:07;18.50;20.50
1381;DHT22;684;48.342;10.096;2023-08-31T08:22:34;18.80;20.40
1381;DHT22;684;48.342;10.096;2023-08-31T08:25:02;19.10;19.70
1381;DHT22;684;48.342;10.096;2023-08-31T08:27:29;19.20;17.80
1381;DHT22;684;48.342;10.096;2023-08-31T08:29:57;19.30;17.30
1381;DHT22;684;48.342;10.096;2023-08-31T08:32:25;19.30;16.70
1381;DHT22;684;48.342;10.096;2023-08-31T08:34:52;19.80;15.90
1381;DHT22;684;48.342;10.096;2023-08-31T08:37:19;20.10;15.30
1381;DHT22;684;48.342;10.096;2023-08-31T08:39:48;20.30;15.00
1381;DHT22;684;48.342;10.096;2023-08-31T08:42:17;20.60;14.10
1381;DHT22;684;48.342;10.096;2023-08-31T08:44:44;20.60;13.80
1381;DHT22;684;48.342;10.096;2023-08-31T08:47:12;20.90;13.30
1381;DHT22;684;48.342;10.096;2023-08-31T08:49:40;21.70;12.50
1381;DHT22;684;48.342;10.096;2023-08-31T08:52:06;22.70;10.30
1381;DHT22;684;48.342;10.096;2023-08-31T08:54:35;24.40;7.30
1381;DHT22;684;48.342;10.096;2023-08-31T08:57:01;26.20;3.60
1381;DHT22;684;48.342;10.096;2023-08-31T08:59:29;27.80;1.00
1381;DHT22;684;48.342;10.096;2023-08-31T09:01:56;30.70;1.00
1381;DHT22;684;48.342;10.096;2023-08-31T09:04:23;33.60;1.00
1381;DHT22;684;48.342;10.096;2023-08-31T09:06:51;35.70;1.00
1381;DHT22;684;48.342;10.096;2023-08-31T09:09:18;35.60;1.00
1381;DHT22;684;48.342;10.096;2023-08-31T09:11:45;34.40;1.00
1381;DHT22;684;48.342;10.096;2023-08-31T09:14:15;33.10;1.00
1381;DHT22;684;48.342;10.096;2023-08-31T09:16:44;32.10;1.00
1381;DHT22;684;48.342;10.096;2023-08-31T09:19:18;31.10;1.00
1381;DHT22;684;48.342;10.096;2023-08-31T09:21:47;29.80;1.00
1381;DHT22;684;48.342;10.096;2023-08-31T09:24:15;28.60;1.00
1381;DHT22;684;48.342;10.096;2023-08-31T09:26:44;27.60;1.00
1381;DHT22;684;48.342;10.096;2023-08-31T09:29:10;26.90;1.00
1381;DHT22;684;48.342;10.096;2023-08-31T09:31:37;26.60;1.00
1381;DHT22;684;48.342;10.096;2023-08-31T09:34:04;26.30;1.00
1381;DHT22;684;48.342;10.096;2023-08-31T09:36:31;26.00;1.00
1381;DHT22;684;48.342;10.096;2023-08-31T09:38:58;25.40;1.00
1381;DHT22;684;48.342;10.096;2023-08-31T09:41:26;24.90;1.00
1381;DHT22;684;48.342;10.096;2023-08-31T09:43:53;24.40;1.00
1381;DHT22;684;48.342;10.096;2023-08-31T09:46:20;23.90;1.00
1381;DHT22;684;48.342;10.096;2023-08-31T09:48:47;24.40;1.00
1381;DHT22;684;48.342;10.096;2023-08-31T09:51:15;24.20;1.00
1381;DHT22;684;48.342;10.096;2023-08-31T09:53:47;23.70;1.00
1381;DHT22;684;48.342;10.096;2023-08-31T09:56:19;23.60;1.00
1381;DHT22;684;48.342;10.096;2023-08-31T09:58:48;24.30;1.00
1381;DHT22;684;48.342;10.096;2023-08-31T10:01:17;26.00;1.00
1381;DHT22;684;48.342;10.096;2023-08-31T10:03:44;28.80;1.00
1381;DHT22;684;48.342;10.096;2023-08-31T10:06:11;31.40;1.00
1381;DHT22;684;48.342;10.096;2023-08-31T10:08:40;33.30;1.00
1381;DHT22;684;48.342;10.096;2023-08-31T10:11:09;35.60;1.00
1381;DHT22;684;48.342;10.096;2023-08-31T10:13:38;37.40;1.00
1381;DHT22;684;48.342;10.096;2023-08-31T10:16:07;38.70;1.00
1381;DHT22;684;48.342;10.096;2023-08-31T10:18:35;38.80;1.00
1381;DHT22;684;48.342;10.096;2023-08-31T10:21:02;38.30;1.00
1381;DHT22;684;48.342;10.096;2023-08-31T10:23:29;36.10;1.00
1381;DHT22;684;48.342;10.096;2023-08-31T10:26:03;35.10;1.00
1381;DHT22;684;48.342;10.096;2023-08-31T10:28:40;34.10;1.00
1381;DHT22;684;48.342;10.096;2023-08-31T10:31:09;34.60;1.00
1381;DHT22;684;48.342;10.096;2023-08-31T10:33:40;35.30;1.00
1381;DHT22;684;48.342;10.096;2023-08-31T10:36:13;35.50;1.00
1381;DHT22;684;48.342;10.096;2023-08-31T10:38:41;35.30;1.00
1381;DHT22;684;48.342;10.096;2023-08-31T10:41:19;36.20;1.00
1381;DHT22;684;48.342;10.096;2023-08-31T10:43:47;36.60;1.00
1381;DHT22;684;48.342;10.096;2023-08-31T10:46:18;36.00;1.00
1381;DHT22;684;48.342;10.096;2023-08-31T10:48:52;35.80;1.00
1381;DHT22;684;48.342;10.096;2023-08-31T10:51:22;36.90;1.00
1381;DHT22;684;48.342;10.096;2023-08-31T10:53:49;37.80;1.00
1381;DHT22;684;48.342;10.096;2023-08-31T10:56:16;38.30;1.00
1381;DHT22;684;48.342;10.096;2023-08-31T10:58:43;38.60;1.00
1381;DHT22;684;48.342;10.096;2023-08-31T11:01:52;38.00;1.00
1381;DHT22;684;48.342;10.096;2023-08-31T11:04:19;36.10;1.00
1381;DHT22;684;48.342;10.096;2023-08-31T11:06:46;34.50;1.00
1381;DHT22;684;48.342;10.096;2023-08-31T11:09:18;33.00;1.00
1381;DHT22;684;48.342;10.096;2023-08-31T11:11:45;31.60;1.00
1381;DHT22;684;48.342;10.096;2023-08-31T11:14:12;30.30;1.00
1381;DHT22;684;48.342;10.096;2023-08-31T11:16:39;29.40;1.00
1381;DHT22;684;48.342;10.096;2023-08-31T11:19:07;28.60;1.00
1381;DHT22;684;48.342;10.096;2023-08-31T11:21:36;28.10;1.00
1381;DHT22;684;48.342;10.096;2023-08-31T11:24:03;27.60;1.00
1381;DHT22;684;48.342;10.096;2023-08-31T11:26:32;27.00;1.00
1381;DHT22;684;48.342;10.096;2023-08-31T11:28:58;26.40;1.00
1381;DHT22;684;48.342;10.096;2023-08-31T11:31:26;26.00;1.00
1381;DHT22;684;48.342;10.096;2023-08-31T11:33:54;25.50;1.00
1381;DHT22;684;48.342;10.096;2023-08-31T11:36:22;25.10;1.00
1381;DHT22;684;48.342;10.096;2023-08-31T11:38:51;24.80;1.00
1381;DHT22;684;48.342;10.096;2023-08-31T11:41:17;24.50;1.00
1381;DHT22;684;48.342;10.096;2023-08-31T11:43:44;24.30;1.00
1381;DHT22;684;48.342;10.096;2023-08-31T11:46:11;24.10;1.00
1381;DHT22;684;48.342;10.096;2023-08-31T11:48:38;24.00;1.00
1381;DHT22;684;48.342;10.096;2023-08-31T11:51:06;23.80;1.00
1381;DHT22;684;48.342;10.096;2023-08-31T11:53:34;23.60;1.00
1381;DHT22;684;48.342;10.096;2023-08-31T11:56:02;23.40;1.00
1381;DHT22;684;48.342;10.096;2023-08-31T11:58:29;23.30;1.00
1381;DHT22;684;48.342;10.096;2023-08-31T12:00:57;23.20;1.00
1381;DHT22;684;48.342;10.096;2023-08-31T12:03:24;23.10;1.00
1381;DHT22;684;48.342;10.096;2023-08-31T12:05:52;23.00;1.00
1381;DHT22;684;48.342;10.096;2023-08-31T12:08:26;23.00;1.00
1381;DHT22;684;48.342;10.096;2023-08-31T12:10:54;23.00;1.00
1381;DHT22;684;48.342;10.096;2023-08-31T12:13:26;22.90;1.00
1381;DHT22;684;48.342;10.096;2023-08-31T12:15:54;22.90;1.00
1381;DHT22;684;48.342;10.096;2023-08-31T12:18:21;23.00;1.00
1381;DHT22;684;48.342;10.096;2023-08-31T12:20:50;23.00;1.00
1381;DHT22;684;48.342;10.096;2023-08-31T12:23:17;23.00;1.00
1381;DHT22;684;48.342;10.096;2023-08-31T12:25:47;22.90;1.00
1381;DHT22;684;48.342;10.096;2023-08-31T12:28:16;22.90;1.00
1381;DHT22;684;48.342;10.096;2023-08-31T12:30:49;22.80;1.00
1381;DHT22;684;48.342;10.096;2023-08-31T12:33:16;22.70;1.00
1381;DHT22;684;48.342;10.096;2023-08-31T12:35:43;22.60;1.00
1381;DHT22;684;48.342;10.096;2023-08-31T12:38:10;22.50;1.00
1381;DHT22;684;48.342;10.096;2023-08-31T12:40:38;22.50;1.00
1381;DHT22;684;48.342;10.096;2023-08-31T12:43:05;22.40;1.00
1381;DHT22;684;48.342;10.096;2023-08-31T12:45:33;22.50;1.00
1381;DHT22;684;48.342;10.096;2023-08-31T12:48:00;22.50;1.00
1381;DHT22;684;48.342;10.096;2023-08-31T12:50:26;22.60;1.00
1381;DHT22;684;48.342;10.096;2023-08-31T12:52:53;22.60;1.00
1381;DHT22;684;48.342;10.096;2023-08-31T12:55:20;22.70;1.00
1381;DHT22;684;48.342;10.096;2023-08-31T12:57:46;22.60;1.00
1381;DHT22;684;48.342;10.096;2023-08-31T13:00:15;22.60;1.00
1381;DHT22;684;48.342;10.096;2023-08-31T13:02:43;22.60;1.00
1381;DHT22;684;48.342;10.096;2023-08-31T13:05:11;22.60;1.00
1381;DHT22;684;48.342;10.096;2023-08-31T13:07:38;22.60;1.00
1381;DHT22;684;48.342;10.096;2023-08-31T13:10:06;22.60;1.00
1381;DHT22;684;48.342;10.096;2023-08-31T13:12:33;22.50;1.00
1381;DHT22;684;48.342;10.096;2023-08-31T13:15:00;22.50;1.00
1381;DHT22;684;48.342;10.096;2023-08-31T13:17:27;22.40;1.00
1381;DHT22;684;48.342;10.096;2023-08-31T13:19:56;22.40;1.00
1381;DHT22;684;48.342;10.096;2023-08-31T13:22:23;22.30;1.00
1381;DHT22;684;48.342;10.096;2023-08-31T13:24:50;22.20;1.00
1381;DHT22;684;48.342;10.096;2023-08-31T13:27:17;22.10;1.00
1381;DHT22;684;48.342;10.096;2023-08-31T13:29:44;22.00;1.00
1381;DHT22;684;48.342;10.096;2023-08-31T13:32:11;22.00;1.00
1381;DHT22;684;48.342;10.096;2023-08-31T13:34:38;22.00;1.00
1381;DHT22;684;48.342;10.096;2023-08-31T13:37:07;21.90;1.00
1381;DHT22;684;48.342;10.096;2023-08-31T13:39:35;21.90;1.00
1381;DHT22;684;48.342;10.096;2023-08-31T13:42:02;21.90;1.00
1381;DHT22;684;48.342;10.096;2023-08-31T13:44:29;21.90;1.00
1381;DHT22;684;48.342;10.096;2023-08-31T13:46:56;21.90;1.00
1381;DHT22;684;48.342;10.096;2023-08-31T13:49:23;21.90;1.00
1381;DHT22;684;48.342;10.096;2023-08-31T13:51:50;21.90;1.00
1381;DHT22;684;48.342;10.096;2023-08-31T13:54:18;22.00;1.00
1381;DHT22;684;48.342;10.096;2023-08-31T13:56:45;22.10;1.00
1381;DHT22;684;48.342;10.096;2023-08-31T13:59:12;22.20;1.00
1381;DHT22;684;48.342;10.096;2023-08-31T14:01:38;22.20;1.00
1381;DHT22;684;48.342;10.096;2023-08-31T14:04:05;22.20;1.00
1381;DHT22;684;48.342;10.096;2023-08-31T14:06:32;22.20;1.00
1381;DHT22;684;48.342;10.096;2023-08-31T14:08:59;22.20;1.00
1381;DHT22;684;48.342;10.096;2023-08-31T14:11:28;22.20;1.00
1381;DHT22;684;48.342;10.096;2023-08-31T14:14:01;22.20;1.00
1381;DHT22;684;48.342;10.096;2023-08-31T14:16:29;22.20;1.00
1381;DHT22;684;48.342;10.096;2023-08-31T14:18:55;22.20;1.00
1381;DHT22;684;48.342;10.096;2023-08-31T14:21:22;22.20;1.00
1381;DHT22;684;48.342;10.096;2023-08-31T14:23:49;22.10;1.00
1381;DHT22;684;48.342;10.096;2023-08-31T14:26:21;22.00;1.00
1381;DHT22;684;48.342;10.096;2023-08-31T14:28:49;22.00;1.00
1381;DHT22;684;48.342;10.096;2023-08-31T14:31:16;22.00;1.00
1381;DHT22;684;48.342;10.096;2023-08-31T14:33:42;21.90;1.00
1381;DHT22;684;48.342;10.096;2023-08-31T14:36:09;21.90;1.00
1381;DHT22;684;48.342;10.096;2023-08-31T14:38:36;21.80;1.00
1381;DHT22;684;48.342;10.096;2023-08-31T14:41:03;21.80;1.00
1381;DHT22;684;48.342;10.096;2023-08-31T14:43:31;21.70;1.00
1381;DHT22;684;48.342;10.096;2023-08-31T14:46:00;21.70;1.00
1381;DHT22;684;48.342;10.096;2023-08-31T14:48:27;21.80;1.00
1381;DHT22;684;48.342;10.096;2023-08-31T14:50:53;21.80;1.00
1381;DHT22;684;48.342;10.096;2023-08-31T14:53:20;21.80;1.00
1381;DHT22;684;48.342;10.096;2023-08-31T14:55:48;21.80;1.00
1381;DHT22;684;48.342;10.096;2023-08-31T14:58:15;21.80;1.00
1381;DHT22;684;48.342;10.096;2023-08-31T15:00:42;21.80;1.00
1381;DHT22;684;48.342;10.096;2023-08-31T15:03:10;21.80;1.00
1381;DHT22;684;48.342;10.096;2023-08-31T15:05:37;21.70;1.00
1381;DHT22;684;48.342;10.096;2023-08-31T15:08:06;21.70;1.00
1381;DHT22;684;48.342;10.096;2023-08-31T15:10:33;21.60;1.00
1381;DHT22;684;48.342;10.096;2023-08-31T15:13:00;21.50;1.00
1381;DHT22;684;48.342;10.096;2023-08-31T15:15:27;21.40;1.00
1381;DHT22;684;48.342;10.096;2023-08-31T15:17:54;21.30;1.20
1381;DHT22;684;48.342;10.096;2023-08-31T15:20:23;21.20;1.40
1381;DHT22;684;48.342;10.096;2023-08-31T15:22:50;21.00;1.80
1381;DHT22;684;48.342;10.096;2023-08-31T15:25:17;20.90;2.30
1381;DHT22;684;48.342;10.096;2023-08-31T15:27:44;20.80;2.10
1381;DHT22;684;48.342;10.096;2023-08-31T15:30:12;20.80;2.60
1381;DHT22;684;48.342;10.096;2023-08-31T15:32:40;20.80;2.70
1381;DHT22;684;48.342;10.096;2023-08-31T15:35:07;20.90;3.00
1381;DHT22;684;48.342;10.096;2023-08-31T15:37:36;20.90;2.90
1381;DHT22;684;48.342;10.096;2023-08-31T15:40:03;21.00;2.60
1381;DHT22;684;48.342;10.096;2023-08-31T15:42:30;21.00;3.00
1381;DHT22;684;48.342;10.096;2023-08-31T15:44:57;21.00;2.60
1381;DHT22;684;48.342;10.096;2023-08-31T15:47:23;21.00;2.90
1381;DHT22;684;48.342;10.096;2023-08-31T15:49:50;21.00;3.00
1381;DHT22;684;48.342;10.096;2023-08-31T15:52:17;21.00;2.50
1381;DHT22;684;48.342;10.096;2023-08-31T15:54:45;21.00;2.40
1381;DHT22;684;48.342;10.096;2023-08-31T15:57:12;21.00;2.20
1381;DHT22;684;48.342;10.096;2023-08-31T15:59:39;20.90;2.70
1381;DHT22;684;48.342;10.096;2023-08-31T16:02:06;20.90;2.40
1381;DHT22;684;48.342;10.096;2023-08-31T16:04:33;20.80;2.80
1381;DHT22;684;48.342;10.096;2023-08-31T16:07:00;20.80;3.00
1381;DHT22;684;48.342;10.096;2023-08-31T16:09:28;20.80;3.10
1381;DHT22;684;48.342;10.096;2023-08-31T16:11:56;20.70;3.40
1381;DHT22;684;48.342;10.096;2023-08-31T16:14:23;20.70;3.70